Αναφορές METAR από Ελληνικά Αεροδρόμια

Σε αυτή τη σελίδα, μπορείτε να παρακολουθείτε τις αναφορές METAR που προέρχονται από τα κυριότερα αεροδρόμια της Ελλάδας. Το περιεχόμενο αποκωδικοποιείται, οπτικοποιείται και γίνεται κατανοητό από τον καθένα με τη χρήση του όμορφου δίγλωσσου γραφικού περιβάλλοντος του meteothes.gr!

Η αρχική κωδικοποιημένη αναφορά, συμπεριλαμβάνεται επίσης στο κάτω μέρος. Σε όποια καθεστερεί η ενημέρωση, το προειδοποιητικό μήνυμα "Μη ενημερωμένο METAR!" εμφανίζεται στο πάνω μέρος της με κόκκινα γράμματα.

Εχουν προστεθεί επίσης δύο αεροδρόμια από γειτονικές χώρες, την Οχρίδα(ΠΓΔΜ) και την Σόφια(Βουλγαρία) για να ελέγχουμε την εξέλιξη των ψυχρών εισβολών από τα Βόρεια!

LGTS - Thessaloniki/Makedonia-Elev 7m
Απόσταση από meteothes.gr: Ν 13km
Ενημερώθηκε: 15/08/2022 06:50
Αίθριος
Αίθριος
 Ανεμος από ΒΒΔ
Ανεμος: ΒΒΔ 19 km/h
Θερμοκρασία: 23°C
Σημ. Δρόσου: 16°C
Υγρασία: 65%
Βαρόμετρο: 1007 hPa
Συνθήκες: Αίθριος
Ορατότητα: πάνω από 10 km
2022/08/15 03:50 LGTS 150350Z 34010KT CAVOK 23/16 Q1007 NOSIG
LGAV - Athens/Elef. Venizelos-Elev 94m
Απόσταση από meteothes.gr: ΝΝΑ 312km
Ενημερώθηκε: 15/08/2022 06:50
Διάσπαρτα Nέφη
Διάσπαρτα Nέφη
 Ανεμος από ΔΝΔ
Ανεμος: ΔΝΔ 6 km/h
Θερμοκρασία: 20°C
Σημ. Δρόσου: 16°C
Υγρασία: 78%
Βαρόμετρο: 1007 hPa
Νέφωση: Διάσπαρτα Nέφη
Ορατότητα: 10 km
Λεπτομέρειες Νεφών: Διάσπαρτα Nέφη 914 m
2022/08/15 03:50 LGAV 150350Z 24003KT 9999 FEW030 20/16 Q1007 NOSIG
 
LGAL - Alexandroupolis-Elev 3m
Απόσταση από meteothes.gr: Α 251km
Ενημερώθηκε: 15/08/2022 06:50
Μερικώς νεφελώδης
Μερικώς νεφελώδης
 Ανεμος από ΒΑ
Ανεμος: ΒΑ 13 km/h
Θερμοκρασία: 22°C
Σημ. Δρόσου: 17°C
Υγρασία: 73%
Βαρόμετρο: 1005 hPa
Νέφωση: Μερικώς νεφελώδης
Ορατότητα: 10 km
Λεπτομέρειες Νεφών: Διάσπαρτα Nέφη 610 m
Μερικώς νεφελώδης 762 m
2022/08/15 03:50 LGAL 150350Z 04007KT 9999 FEW020TCU SCT025 22/17 Q1005
LGKV - Kavala/Crysoupolis-Elev 5m
Απόσταση από meteothes.gr: ΑΒΑ 144km
Ενημερώθηκε: 15/08/2022 06:50
Διάσπαρτα Nέφη
Διάσπαρτα Nέφη
 Ανεμος από άπνοια
Ανεμος: άπνοια
Θερμοκρασία: 19°C
Σημ. Δρόσου: 18°C
Υγρασία: 94%
Βαρόμετρο: 1006 hPa
Νέφωση: Διάσπαρτα Nέφη
Ορατότητα: 10 km
Λεπτομέρειες Νεφών: Διάσπαρτα Nέφη 610 m
2022/08/15 03:50 LGKV 150350Z 00000KT 9999 FEW020 19/18 Q1006
 
LGSK - Skiathos Island-Elev 15m
Απόσταση από meteothes.gr: ΝΝΑ 168km
Ενημερώθηκε: 15/08/2022 06:50
Αίθριος
Αίθριος
 Ανεμος από άπνοια
Ανεμος: άπνοια
Θερμοκρασία: 23°C
Σημ. Δρόσου: 18°C
Υγρασία: 74%
Βαρόμετρο: 1014 hPa
Συνθήκες: Αίθριος
Ορατότητα: πάνω από 10 km
2022/08/15 03:50 LGSK 150350Z 00000KT CAVOK 23/18 Q1014
LGLM - Limnos Island-Elev 5m
Απόσταση από meteothes.gr: ΑΝΑ 210km
Ενημερώθηκε: 15/08/2022 06:50
Διάσπαρτα Nέφη
Διάσπαρτα Nέφη
 Ανεμος από Β
Ανεμος: Β 6 km/h
Θερμοκρασία: 21°C
Σημ. Δρόσου: 18°C
Υγρασία: 83%
Βαρόμετρο: 1005 hPa
Νέφωση: Διάσπαρτα Nέφη
Ορατότητα: 10 km
Λεπτομέρειες Νεφών: Διάσπαρτα Nέφη 610 m
2022/08/15 03:50 LGLM 150350Z 35003KT 9999 FEW020 21/18 Q1005
 
LGMT - Mitilini Island-Elev 17m
Απόσταση από meteothes.gr: ΑΝΑ 358km
Ενημερώθηκε: 15/08/2022 06:50
Μερικώς νεφελώδης
Μερικώς νεφελώδης
 Ανεμος από άπνοια
Ανεμος: άπνοια
Θερμοκρασία: 24°C
Σημ. Δρόσου: 17°C
Υγρασία: 65%
Βαρόμετρο: 1005 hPa
Νέφωση: Μερικώς νεφελώδης
Ορατότητα: 10 km
Λεπτομέρειες Νεφών: Μερικώς νεφελώδης 762 m
2022/08/15 03:50 LGMT 150350Z 00000KT 9999 SCT025 24/17 Q1005
LGSY - Skiros Island-Elev 15m
Απόσταση από meteothes.gr: ΝΑ 227km
Ενημερώθηκε: 15/08/2022 06:50
Διάσπαρτα Nέφη
Διάσπαρτα Nέφη
 Ανεμος από ΔΝΔ
Ανεμος: ΔΝΔ 11 km/h
Θερμοκρασία: 23°C
Σημ. Δρόσου: 19°C
Υγρασία: 78%
Βαρόμετρο: 1006 hPa
Νέφωση: Διάσπαρτα Nέφη
Ορατότητα: 10 km
Λεπτομέρειες Νεφών: Διάσπαρτα Nέφη 610 m
2022/08/15 03:50 LGSY 150350Z 25006KT 9999 FEW020 23/19 Q1006 RMK FEW080 BLU
 
LGKZ - Kozani-Elev 628m
Απόσταση από meteothes.gr: ΔΝΔ 102km
Ενημερώθηκε: 15/08/2022 06:50

 Ανεμος από μεταβλητός
Ανεμος: μεταβλητός 6 km/h
Θερμοκρασία: 12°C
Σημ. Δρόσου: 11°C
Υγρασία: 94%
Βαρόμετρο: 1011 hPa
2022/08/15 03:50 LGKZ 150350Z AUTO VRB03KT //// // ////// 12/11 Q1011 RE//
LGIO - Ioannina-Elev 476m
Απόσταση από meteothes.gr: ΔΝΔ 209km
Ενημερώθηκε: 15/08/2022 06:50

 Ανεμος από μεταβλητός
Ανεμος: μεταβλητός 6 km/h
Θερμοκρασία: 14°C
Σημ. Δρόσου: 13°C
Υγρασία: 94%
Βαρόμετρο: 1011 hPa
2022/08/15 03:50 LGIO 150350Z AUTO VRB03KT //// // ////// 14/13 Q1011 RE//
 
LGZA - Zakinthos-Elev 3m
Απόσταση από meteothes.gr: ΝΝΔ 367km
Ενημερώθηκε: 15/08/2022 06:50
Διάσπαρτα Nέφη
Διάσπαρτα Nέφη
 Ανεμος από μεταβλητός
Ανεμος: μεταβλητός 6 km/h
Θερμοκρασία: 24°C
Σημ. Δρόσου: 19°C
Υγρασία: 74%
Βαρόμετρο: 1008 hPa
Νέφωση: Διάσπαρτα Nέφη
Ορατότητα: 10 km
Λεπτομέρειες Νεφών: Διάσπαρτα Nέφη 549 m
2022/08/15 03:50 LGZA 150350Z VRB03KT 9999 FEW018 24/19 Q1008
LGKR - Corfu Island-Elev 2m
Απόσταση από meteothes.gr: ΔΝΔ 282km
Ενημερώθηκε: 15/08/2022 06:50
Αίθριος
Αίθριος
 Ανεμος από άπνοια
Ανεμος: άπνοια
Θερμοκρασία: 20°C
Σημ. Δρόσου: 18°C
Υγρασία: 88%
Βαρόμετρο: 1007 hPa
Συνθήκες: Αίθριος
Ορατότητα: πάνω από 10 km
2022/08/15 03:50 LGKR 150350Z 00000KT CAVOK 20/18 Q1007 NOSIG
 
LGSO - Syros Island-Elev 72m
Απόσταση από meteothes.gr: ΝΝΑ 397km
Ενημερώθηκε: 15/08/2022 06:50

 Ανεμος από Β
Ανεμος: Β 15 km/h
Θερμοκρασία: 23°C
Σημ. Δρόσου: 18°C
Υγρασία: 74%
Βαρόμετρο: 1007 hPa
2022/08/15 03:50 LGSO 150350Z AUTO 01008KT 320V020 //// // ////// 23/18 Q1007 RE//
LGMK - Mikonos Island-Elev 123m
Απόσταση από meteothes.gr: ΝΝΑ 412km
Ενημερώθηκε: 15/08/2022 06:50
Διάσπαρτα Nέφη
Διάσπαρτα Nέφη
 Ανεμος από Β
Ανεμος: Β 20 km/h
Θερμοκρασία: 22°C
Σημ. Δρόσου: 15°C
Υγρασία: 65%
Βαρόμετρο: 1006 hPa
Νέφωση: Διάσπαρτα Nέφη
Ορατότητα: 10 km
Λεπτομέρειες Νεφών: Διάσπαρτα Nέφη 762 m
2022/08/15 03:50 LGMK 150350Z 01011KT 9999 FEW025 22/15 Q1006
 
LGSR - Santorini Island-Elev 40m
Απόσταση από meteothes.gr: ΝΝΑ 520km
Ενημερώθηκε: 15/08/2022 06:50
Αίθριος
Αίθριος
 Ανεμος από Β
Ανεμος: Β 11 km/h
Θερμοκρασία: 25°C
Σημ. Δρόσου: 22°C
Υγρασία: 83%
Βαρόμετρο: 1005 hPa
Συνθήκες: Αίθριος
Ορατότητα: πάνω από 10 km
2022/08/15 03:50 LGSR 150350Z 36006KT CAVOK 25/22 Q1005
LGKL - Kalamata-Elev 8m
Απόσταση από meteothes.gr: Ν 405km
Ενημερώθηκε: 15/08/2022 06:50
Διάσπαρτα Nέφη
Διάσπαρτα Nέφη
 Ανεμος από μεταβλητός
Ανεμος: μεταβλητός 6 km/h
Θερμοκρασία: 20°C
Σημ. Δρόσου: 16°C
Υγρασία: 78%
Βαρόμετρο: 1008 hPa
Νέφωση: Διάσπαρτα Nέφη
Ορατότητα: 10 km
Λεπτομέρειες Νεφών: Διάσπαρτα Nέφη 914 m
2022/08/15 03:50 LGKL 150350Z VRB03KT 9999 FEW030 20/16 Q1008
 
LGIR - Iraklion/Crete-Elev 5m
Απόσταση από meteothes.gr: ΝΝΑ 622km
Ενημερώθηκε: 15/08/2022 06:50
Αίθριος
Αίθριος
 Ανεμος από ΝΝΔ
Ανεμος: ΝΝΔ 7 km/h
Θερμοκρασία: 24°C
Σημ. Δρόσου: 20°C
Υγρασία: 78%
Βαρόμετρο: 1006 hPa
Συνθήκες: Αίθριος
Ορατότητα: πάνω από 10 km
2022/08/15 03:50 LGIR 150350Z 21004KT CAVOK 24/20 Q1006 NOSIG
LGRP - Rhodes-Elev 5m
Απόσταση από meteothes.gr: ΝΑ 649km
Ενημερώθηκε: 15/08/2022 06:50
Διάσπαρτα Nέφη
Διάσπαρτα Nέφη
 Ανεμος από ΝΝΔ
Ανεμος: ΝΝΔ 11 km/h
Θερμοκρασία: 25°C
Σημ. Δρόσου: 22°C
Υγρασία: 83%
Βαρόμετρο: 1004 hPa
Νέφωση: Διάσπαρτα Nέφη
Ορατότητα: 10 km
Λεπτομέρειες Νεφών: Διάσπαρτα Nέφη 183 m
2022/08/15 03:50 LGRP 150350Z 21006KT 9999 FEW006 25/22 Q1004 NOSIG
 
LWOH - Ohrid/FYROM-Elev 761m
Απόσταση από meteothes.gr: ΔΒΔ 188km
Ενημερώθηκε: 15/08/2022 07:00
Αίθριος
Αίθριος
 Ανεμος από ΒΒΔ
Ανεμος: ΒΒΔ 4 km/h
Θερμοκρασία: 10°C
Σημ. Δρόσου: 8°C
Υγρασία: 88%
Βαρόμετρο: 1012 hPa
Συνθήκες: Αίθριος
Ορατότητα: πάνω από 10 km
2022/08/15 04:00 LWOH 150400Z 34002KT CAVOK 10/08 Q1012
LBSF - Sofia/Bulgaria-Elev 595m
Απόσταση από meteothes.gr: Β 227km
Ενημερώθηκε: 15/08/2022 07:00
Συννεφιά
Συννεφιά
 Ανεμος από Β
Ανεμος: Β 9 km/h
Θερμοκρασία: 15°C
Σημ. Δρόσου: 14°C
Υγρασία: 94%
Βαρόμετρο: 1010 hPa
Νέφωση: Συννεφιά
Ορατότητα: 10 km
Λεπτομέρειες Νεφών: Κυρίως νεφελώδης 366 m
Κυρίως νεφελώδης 457 m
Συννεφιά 1036 m
2022/08/15 04:00 LBSF 150400Z 35005KT 9999 BKN012 BKN015 OVC034 15/14 Q1010 TEMPO 3000 BR

(*) Μερικές αναφορές παρουσιάζουν λιγότερα στοιχεία γιατί οι αρχικές είναι ελλιπείς ή έχουν λάθος μορφοποίηση!